Time;durP1;ratioP1;P1;durP2;ratioP2;P2;SDS_P1;SDS_P2;PMS_P1;PMS_P2;Temp;Humidity;BMP_temperature;BMP_pressure;BME280_temperature;BME280_humidity;BME280_pressure;Samples;Min_cycle;Max_cycle;Signal;HPM_P1;HPM_P2
2022/10/08 00:00:48;;;;;;;20.63;3.17;;;;;;;12.35;100.00;101490.91;5049143;28;20549;-73
2022/10/08 00:03:15;;;;;;;17.70;3.72;;;;;;;12.38;100.00;101482.72;5052557;28;20048;-69
2022/10/08 00:05:41;;;;;;;19.02;4.07;;;;;;;12.42;100.00;101490.47;5059768;28;20158;-70
2022/10/08 00:08:08;;;;;;;9.00;2.53;;;;;;;12.39;100.00;101484.44;5060006;28;20032;-71
2022/10/08 00:10:34;;;;;;;7.32;2.92;;;;;;;12.43;100.00;101480.63;5053078;28;20127;-70
2022/10/08 00:13:01;;;;;;;10.50;3.15;;;;;;;12.49;100.00;101488.25;5053222;28;20783;-71
2022/10/08 00:15:26;;;;;;;16.92;3.13;;;;;;;12.45;100.00;101481.41;5055183;28;20036;-71
2022/10/08 00:17:52;;;;;;;12.52;3.40;;;;;;;12.46;100.00;101485.78;5060820;28;20040;-70
2022/10/08 00:20:18;;;;;;;18.98;3.72;;;;;;;12.40;100.00;101486.19;5060714;28;20045;-70
2022/10/08 00:22:44;;;;;;;12.95;3.20;;;;;;;12.47;100.00;101487.50;5059758;28;20707;-71
2022/10/08 00:25:09;;;;;;;15.18;3.80;;;;;;;12.45;100.00;101486.75;5022272;28;20059;-71
2022/10/08 00:27:35;;;;;;;12.30;3.42;;;;;;;12.52;100.00;101493.44;5058821;28;20048;-70
2022/10/08 00:30:02;;;;;;;18.30;3.10;;;;;;;12.58;100.00;101500.22;5059129;28;20139;-70
2022/10/08 00:32:28;;;;;;;21.75;3.40;;;;;;;12.63;100.00;101498.13;5057402;28;20071;-71
2022/10/08 00:34:53;;;;;;;11.43;2.85;;;;;;;12.62;100.00;101496.41;5059671;28;20044;-69
2022/10/08 00:37:19;;;;;;;14.50;3.65;;;;;;;12.65;100.00;101496.19;5059667;28;20044;-70
2022/10/08 00:39:44;;;;;;;11.63;3.53;;;;;;;12.69;100.00;101498.59;5058338;28;20047;-71
2022/10/08 00:42:11;;;;;;;16.20;3.38;;;;;;;12.66;100.00;101496.13;5038335;28;20098;-70
2022/10/08 00:44:52;;;;;;;18.00;3.88;;;;;;;12.72;100.00;101504.72;5055588;28;20045;-71
2022/10/08 00:47:41;;;;;;;17.48;3.35;;;;;;;12.72;100.00;101502.06;5057785;28;20040;-70
2022/10/08 00:50:32;;;;;;;9.02;3.22;;;;;;;12.78;100.00;101509.69;5036071;28;20048;-71
2022/10/08 00:53:02;;;;;;;12.73;3.13;;;;;;;12.79;100.00;101506.91;5040851;28;20064;-69
2022/10/08 00:55:29;;;;;;;15.65;3.45;;;;;;;12.86;100.00;101497.56;5054888;28;20470;-71
2022/10/08 00:58:00;;;;;;;17.83;3.30;;;;;;;12.91;100.00;101503.50;5059787;28;20036;-71
2022/10/08 01:00:25;;;;;;;9.52;2.47;;;;;;;12.90;100.00;101493.75;5059475;28;20044;-71
2022/10/08 01:02:52;;;;;;;25.80;4.22;;;;;;;12.91;100.00;101498.16;5056240;28;20059;-71
2022/10/08 01:05:40;;;;;;;7.65;2.88;;;;;;;12.89;100.00;101497.38;5039976;28;20056;-70
2022/10/08 01:08:22;;;;;;;15.13;3.78;;;;;;;12.93;100.00;101500.72;5053718;28;20032;-70
2022/10/08 01:11:06;;;;;;;10.70;2.92;;;;;;;12.95;100.00;101510.38;5057657;28;20111;-71
2022/10/08 01:14:06;;;;;;;12.38;3.33;;;;;;;12.93;100.00;101498.91;5052532;28;20040;-71
2022/10/08 01:16:53;;;;;;;13.30;3.05;;;;;;;12.95;100.00;101501.47;5053291;28;20387;-71
2022/10/08 01:19:41;;;;;;;15.05;3.60;;;;;;;12.93;100.00;101512.28;5058421;28;20067;-70
2022/10/08 01:22:13;;;;;;;13.23;4.05;;;;;;;12.90;100.00;101504.47;5034573;28;20433;-69
2022/10/08 01:27:49;;;;;;;12.07;4.07;;;;;;;12.94;100.00;101505.97;5057732;28;20048;-70
2022/10/08 01:30:16;;;;;;;20.95;4.85;;;;;;;12.92;100.00;101512.38;5038596;28;20476;-70
2022/10/08 01:32:58;;;;;;;12.40;4.15;;;;;;;12.93;100.00;101506.06;5060285;28;20083;-70
2022/10/08 01:35:30;;;;;;;12.10;4.22;;;;;;;12.89;100.00;101508.06;5045685;28;20040;-69
2022/10/08 01:38:01;;;;;;;7.63;3.97;;;;;;;12.86;100.00;101502.06;5059643;28;20039;-70
2022/10/08 01:40:33;;;;;;;22.88;4.63;;;;;;;12.72;100.00;101507.41;5052597;28;20048;-71
2022/10/08 01:43:00;;;;;;;14.02;5.75;;;;;;;12.57;100.00;101510.06;5059993;28;20102;-70
2022/10/08 01:45:31;;;;;;;21.63;5.45;;;;;;;12.41;100.00;101511.97;5061386;28;20040;-71
2022/10/08 01:48:00;;;;;;;16.77;5.67;;;;;;;12.36;100.00;101511.38;5058667;28;20051;-70
2022/10/08 01:50:41;;;;;;;11.75;4.38;;;;;;;12.28;100.00;101505.63;5061717;28;20151;-70
2022/10/08 01:53:11;;;;;;;18.45;6.20;;;;;;;12.23;100.00;101513.91;5042489;28;20846;-70
2022/10/08 01:55:48;;;;;;;15.90;5.20;;;;;;;12.21;100.00;101513.16;5061698;28;20052;-70
2022/10/08 01:58:30;;;;;;;17.40;6.05;;;;;;;12.23;100.00;101518.41;5066276;28;20068;-69
2022/10/08 02:00:58;;;;;;;;;;;;;;;12.21;100.00;101525.66;5064011;28;20499;-70
2022/10/08 02:03:24;;;;;;;16.67;4.63;;;;;;;12.17;100.00;101527.66;5063961;28;20269;-70
2022/10/08 02:05:53;;;;;;;11.85;4.80;;;;;;;12.14;100.00;101528.69;5065448;28;20053;-69
2022/10/08 02:08:20;;;;;;;22.35;5.95;;;;;;;12.12;100.00;101532.41;5065013;28;20035;-70
2022/10/08 02:10:45;;;;;;;18.77;5.43;;;;;;;12.08;100.00;101523.69;5056499;28;20080;-70
2022/10/08 02:13:11;;;;;;;13.43;4.75;;;;;;;12.04;100.00;101526.63;5063003;28;20155;-70
2022/10/08 02:15:52;;;;;;;15.98;5.60;;;;;;;12.03;100.00;101525.78;5065619;28;20060;-73
2022/10/08 02:18:36;;;;;;;16.27;6.95;;;;;;;12.04;100.00;101523.97;5059307;28;20064;-70
2022/10/08 02:21:07;;;;;;;28.50;9.30;;;;;;;12.02;100.00;101531.22;5064334;28;20036;-69
2022/10/08 02:23:42;;;;;;;21.02;8.00;;;;;;;12.01;100.00;101534.84;5065838;28;20039;-70
2022/10/08 02:26:13;;;;;;;19.00;7.70;;;;;;;11.98;100.00;101532.34;5060881;28;20476;-71
2022/10/08 02:28:52;;;;;;;24.13;8.68;;;;;;;12.00;100.00;101527.75;5063684;28;20040;-70
2022/10/08 02:31:23;;;;;;;21.75;8.63;;;;;;;11.95;100.00;101530.72;5058981;28;20036;-69
2022/10/08 02:34:05;;;;;;;22.88;8.25;;;;;;;11.91;100.00;101530.03;5061024;28;20052;-69
2022/10/08 02:36:37;;;;;;;25.65;9.05;;;;;;;11.90;100.00;101524.78;5062570;28;20075;-70
2022/10/08 02:39:04;;;;;;;23.42;8.57;;;;;;;11.92;100.00;101520.19;5061086;28;20037;-70
2022/10/08 02:41:52;;;;;;;20.08;8.45;;;;;;;11.89;100.00;101528.38;5066338;28;20038;-70
2022/10/08 02:44:24;;;;;;;25.45;9.50;;;;;;;11.88;100.00;101529.34;5057288;28;20047;-70
2022/10/08 02:46:53;;;;;;;22.65;9.40;;;;;;;11.84;100.00;101527.78;5053831;28;20060;-70
2022/10/08 02:49:27;;;;;;;21.40;8.20;;;;;;;11.81;100.00;101526.13;5065249;28;20464;-70
2022/10/08 02:51:56;;;;;;;30.33;8.07;;;;;;;11.84;100.00;101525.97;5060959;28;20487;-70
2022/10/08 02:54:22;;;;;;;27.83;8.68;;;;;;;11.84;100.00;101519.78;5065511;28;20044;-70
2022/10/08 02:56:54;;;;;;;26.08;8.75;;;;;;;11.83;100.00;101526.94;5063713;28;20407;-70
2022/10/08 02:59:20;;;;;;;19.17;7.33;;;;;;;11.83;100.00;101531.41;5066228;28;20044;-70
2022/10/08 03:01:56;;;;;;;19.15;7.70;;;;;;;11.79;100.00;101532.50;5061874;28;20041;-70
2022/10/08 03:04:30;;;;;;;22.75;8.60;;;;;;;11.76;100.00;101528.22;5059682;28;20040;-70
2022/10/08 03:06:58;;;;;;;24.50;7.75;;;;;;;11.71;100.00;101519.59;5058321;28;20037;-70
2022/10/08 03:09:27;;;;;;;22.85;8.02;;;;;;;11.73;100.00;101514.16;5062934;28;20043;-70
2022/10/08 03:11:53;;;;;;;25.17;7.47;;;;;;;11.77;100.00;101518.38;5061997;28;20041;-70
2022/10/08 03:14:22;;;;;;;17.33;7.72;;;;;;;11.74;100.00;101526.56;5057011;28;20044;-69
2022/10/08 03:16:48;;;;;;;19.95;8.25;;;;;;;11.76;100.00;101530.03;5062894;28;20125;-70
2022/10/08 03:19:15;;;;;;;21.15;8.38;;;;;;;11.74;100.00;101529.25;5059949;28;20044;-70
2022/10/08 03:21:43;;;;;;;16.58;7.70;;;;;;;11.68;100.00;101531.31;5065754;28;20073;-70
2022/10/08 03:24:10;;;;;;;17.85;7.50;;;;;;;11.66;100.00;101529.69;5065396;28;20078;-70
2022/10/08 03:26:36;;;;;;;29.08;9.30;;;;;;;11.59;100.00;101544.31;5059072;28;20070;-69
2022/10/08 03:29:02;;;;;;;19.58;7.88;;;;;;;11.61;100.00;101534.44;5044010;28;20773;-69
2022/10/08 03:31:28;;;;;;;27.02;7.53;;;;;;;11.55;100.00;101530.31;5062909;28;20043;-70
2022/10/08 03:33:54;;;;;;;23.77;7.78;;;;;;;11.49;100.00;101541.31;5054425;28;20557;-68
2022/10/08 03:36:20;;;;;;;19.95;6.95;;;;;;;11.48;100.00;101546.75;5040255;28;20957;-70
2022/10/08 03:38:47;;;;;;;18.42;7.13;;;;;;;11.37;100.00;101542.88;5040919;28;20041;-70
2022/10/08 03:41:13;;;;;;;18.08;8.13;;;;;;;11.38;100.00;101552.59;5065456;28;20033;-70
2022/10/08 03:43:38;;;;;;;24.90;7.78;;;;;;;11.34;100.00;101543.03;5065105;28;20040;-70
2022/10/08 03:46:04;;;;;;;23.58;7.80;;;;;;;11.35;100.00;101549.25;5051211;28;20024;-69
2022/10/08 03:48:30;;;;;;;25.42;6.55;;;;;;;11.37;100.00;101558.03;5063999;28;20112;-70
2022/10/08 03:50:58;;;;;;;21.60;7.35;;;;;;;11.34;100.00;101555.50;5062661;28;20103;-69
2022/10/08 03:53:25;;;;;;;14.30;6.43;;;;;;;11.28;100.00;101548.69;5064476;28;20141;-69
2022/10/08 03:55:51;;;;;;;20.30;8.75;;;;;;;11.23;100.00;101547.22;5064376;28;20121;-70
2022/10/08 03:58:17;;;;;;;26.70;7.55;;;;;;;11.25;100.00;101553.38;5064543;28;20036;-70
2022/10/08 04:00:42;;;;;;;21.98;7.90;;;;;;;11.25;100.00;101556.03;5064472;28;20036;-70
2022/10/08 04:03:08;;;;;;;21.13;7.88;;;;;;;11.25;100.00;101559.56;5063204;28;20063;-70
2022/10/08 04:05:34;;;;;;;21.85;7.47;;;;;;;11.33;100.00;101572.47;5064314;28;20091;-69
2022/10/08 04:08:00;;;;;;;20.70;6.95;;;;;;;11.35;100.00;101576.81;5063055;28;20044;-69
2022/10/08 04:10:25;;;;;;;23.10;7.28;;;;;;;11.38;100.00;101573.94;5062466;28;20051;-69
2022/10/08 04:12:51;;;;;;;17.05;7.18;;;;;;;11.38;100.00;101575.75;5058674;28;20040;-70
2022/10/08 04:15:17;;;;;;;25.08;8.45;;;;;;;11.34;100.00;101572.38;5059668;28;20588;-69
2022/10/08 04:17:42;;;;;;;23.50;7.85;;;;;;;11.37;100.00;101574.91;5064629;28;20071;-69
2022/10/08 04:20:08;;;;;;;16.73;7.07;;;;;;;11.31;100.00;101575.25;5064346;28;20044;-69
2022/10/08 04:22:34;;;;;;;15.52;7.95;;;;;;;11.37;100.00;101577.56;5060638;28;20075;-69
2022/10/08 04:24:59;;;;;;;14.68;8.05;;;;;;;11.31;100.00;101574.38;5063129;28;20044;-69
2022/10/08 04:27:25;;;;;;;17.70;8.13;;;;;;;11.33;100.00;101573.34;5040776;28;20036;-68
2022/10/08 04:29:50;;;;;;;21.35;7.75;;;;;;;11.34;100.00;101582.22;5062943;28;20655;-69
2022/10/08 04:32:16;;;;;;;26.50;8.88;;;;;;;11.34;100.00;101579.53;5057142;28;20025;-68
2022/10/08 04:34:41;;;;;;;15.50;8.02;;;;;;;11.35;100.00;101578.63;5063443;28;20492;-68
2022/10/08 04:37:07;;;;;;;24.95;10.35;;;;;;;11.35;100.00;101578.63;5062672;28;20372;-69
2022/10/08 04:39:32;;;;;;;21.98;8.52;;;;;;;11.32;100.00;101587.66;5058127;28;20868;-69
2022/10/08 04:41:58;;;;;;;16.50;8.80;;;;;;;11.31;100.00;101587.75;5058797;28;20037;-68
2022/10/08 04:44:23;;;;;;;28.35;10.02;;;;;;;11.33;100.00;101592.03;5056627;28;20127;-69
2022/10/08 04:46:49;;;;;;;18.73;9.38;;;;;;;11.29;100.00;101584.28;5052939;28;20036;-69
2022/10/08 04:49:14;;;;;;;22.60;8.85;;;;;;;11.30;100.00;101591.38;5041464;28;20052;-69
2022/10/08 04:51:40;;;;;;;24.65;9.40;;;;;;;11.32;100.00;101592.13;5062595;28;20045;-69
2022/10/08 04:54:05;;;;;;;18.10;8.85;;;;;;;11.33;100.00;101594.72;5058623;28;20060;-69
2022/10/08 04:56:31;;;;;;;21.10;10.02;;;;;;;11.34;100.00;101607.09;5061128;28;20033;-69
2022/10/08 04:58:58;;;;;;;27.08;10.07;;;;;;;11.36;100.00;101609.72;5057534;28;20063;-69
2022/10/08 05:01:25;;;;;;;16.80;9.77;;;;;;;11.40;100.00;101604.13;5058182;28;20034;-67
2022/10/08 05:03:53;;;;;;;21.05;9.25;;;;;;;11.41;100.00;101610.31;5019440;28;20501;-69
2022/10/08 05:06:21;;;;;;;22.50;9.68;;;;;;;11.39;100.00;101614.88;5057205;28;20053;-69
2022/10/08 05:08:47;;;;;;;18.23;9.50;;;;;;;11.42;100.00;101614.72;5062689;28;20041;-69
2022/10/08 05:11:14;;;;;;;21.02;9.73;;;;;;;11.35;100.00;101619.53;5062775;28;20051;-69
2022/10/08 05:13:41;;;;;;;24.48;9.60;;;;;;;11.33;100.00;101625.88;5044730;28;20130;-69
2022/10/08 05:16:09;;;;;;;20.80;10.32;;;;;;;11.35;100.00;101640.03;5057929;28;20048;-69
2022/10/08 05:18:36;;;;;;;22.40;9.13;;;;;;;11.31;100.00;101634.00;5040529;28;20063;-68
2022/10/08 05:21:08;;;;;;;34.30;10.93;;;;;;;11.34;100.00;101639.16;5066106;28;20047;-70
2022/10/08 05:23:34;;;;;;;19.60;9.32;;;;;;;11.42;100.00;101641.41;5062683;28;20040;-69
2022/10/08 05:26:09;;;;;;;22.00;9.40;;;;;;;11.42;100.00;101641.41;5061155;28;20081;-69
2022/10/08 05:28:34;;;;;;;24.77;9.40;;;;;;;11.45;100.00;101649.28;5062794;28;20044;-69
2022/10/08 05:31:00;;;;;;;16.63;8.25;;;;;;;11.37;100.00;101641.66;5065716;28;20036;-68
2022/10/08 05:33:26;;;;;;;20.05;9.48;;;;;;;11.39;100.00;101642.44;5047481;28;20044;-68
2022/10/08 05:35:51;;;;;;;30.65;10.32;;;;;;;11.39;100.00;101652.25;5062486;28;20044;-69
2022/10/08 05:38:17;;;;;;;26.15;10.25;;;;;;;11.42;100.00;101654.78;5066753;28;20086;-68
2022/10/08 05:40:42;;;;;;;23.38;9.00;;;;;;;11.40;100.00;101654.88;5067095;28;20040;-68
2022/10/08 05:43:07;;;;;;;18.55;9.23;;;;;;;11.43;100.00;101667.16;5067555;28;20037;-70
2022/10/08 05:45:33;;;;;;;19.88;9.00;;;;;;;11.40;100.00;101664.69;5058753;28;20052;-70
2022/10/08 05:47:58;;;;;;;19.20;8.52;;;;;;;11.44;100.00;101676.03;5062096;28;20029;-69
2022/10/08 05:50:24;;;;;;;27.45;9.73;;;;;;;11.40;100.00;101667.34;5046521;28;20059;-69
2022/10/08 05:52:49;;;;;;;19.27;9.45;;;;;;;11.45;100.00;101669.78;5064526;28;20032;-70
2022/10/08 05:55:15;;;;;;;32.25;9.70;;;;;;;11.48;100.00;101665.13;5062492;28;20036;-69
2022/10/08 05:57:40;;;;;;;23.73;10.30;;;;;;;11.50;100.00;101665.91;5047372;28;20114;-69
2022/10/08 06:00:06;;;;;;;22.83;10.45;;;;;;;11.47;100.00;101673.22;5064497;28;20039;-70
2022/10/08 06:02:37;;;;;;;20.40;10.40;;;;;;;11.53;100.00;101681.75;5063764;28;20126;-68
2022/10/08 06:05:02;;;;;;;21.17;9.63;;;;;;;11.45;100.00;101694.69;5040467;28;20060;-69
2022/10/08 06:07:28;;;;;;;21.23;10.32;;;;;;;11.53;100.00;101687.09;5063707;28;20697;-69
2022/10/08 06:09:53;;;;;;;26.40;11.88;;;;;;;11.60;100.00;101688.50;5048070;28;20059;-70
2022/10/08 06:12:18;;;;;;;22.13;9.63;;;;;;;11.56;100.00;101699.44;5062028;28;20049;-69
2022/10/08 06:14:44;;;;;;;21.95;10.15;;;;;;;11.55;100.00;101700.41;5063213;28;20464;-68
2022/10/08 06:17:10;;;;;;;26.52;10.77;;;;;;;11.71;100.00;101708.44;5057709;28;20037;-69
2022/10/08 06:19:36;;;;;;;22.00;10.55;;;;;;;11.78;100.00;101707.16;5063147;28;20044;-68
2022/10/08 06:22:03;;;;;;;22.58;9.65;;;;;;;11.79;100.00;101709.72;5046728;28;20048;-69
2022/10/08 06:24:28;;;;;;;19.45;10.27;;;;;;;11.77;100.00;101718.78;5065150;28;20046;-69
2022/10/08 06:26:53;;;;;;;22.45;10.40;;;;;;;11.72;100.00;101719.03;5046009;28;20897;-69
2022/10/08 06:29:21;;;;;;;24.67;10.82;;;;;;;11.62;100.00;101721.34;5043606;28;20040;-69
2022/10/08 06:31:46;;;;;;;22.52;10.80;;;;;;;11.67;100.00;101719.28;5062974;28;20051;-68
2022/10/08 06:34:12;;;;;;;26.52;9.98;;;;;;;11.59;100.00;101726.84;5062735;28;20633;-70
2022/10/08 06:36:38;;;;;;;31.23;10.93;;;;;;;11.56;100.00;101729.69;5062970;28;20044;-68
2022/10/08 06:39:06;;;;;;;30.98;11.57;;;;;;;11.55;100.00;101735.13;5061785;28;20041;-68
2022/10/08 06:41:35;;;;;;;20.20;10.70;;;;;;;11.60;100.00;101736.59;5064872;28;20036;-69
2022/10/08 06:44:06;;;;;;;26.90;11.50;;;;;;;11.62;100.00;101741.84;5060523;28;20057;-69
2022/10/08 06:46:32;;;;;;;27.80;12.80;;;;;;;11.66;100.00;101741.59;5060819;28;20427;-69
2022/10/08 06:48:59;;;;;;;30.35;11.73;;;;;;;11.84;100.00;101753.13;5064680;28;20118;-69
2022/10/08 06:51:25;;;;;;;21.80;10.45;;;;;;;11.97;100.00;101749.81;5061890;28;20121;-69
2022/10/08 06:53:53;;;;;;;24.40;11.68;;;;;;;12.06;100.00;101758.19;5038938;28;20048;-69
2022/10/08 06:56:19;;;;;;;27.38;11.02;;;;;;;12.48;100.00;101762.09;5064690;28;20036;-69
2022/10/08 06:58:46;;;;;;;26.52;11.57;;;;;;;12.68;100.00;101763.63;5059182;28;20040;-69
2022/10/08 07:01:13;;;;;;;32.88;11.60;;;;;;;13.09;100.00;101771.91;5057568;28;20045;-71
2022/10/08 07:03:39;;;;;;;21.27;10.90;;;;;;;13.15;100.00;101768.91;5060787;28;20060;-68
2022/10/08 07:06:07;;;;;;;22.75;9.75;;;;;;;13.12;100.00;101773.56;5059387;28;20520;-70
2022/10/08 07:08:34;;;;;;;21.80;8.75;;;;;;;13.06;100.00;101784.66;5045093;28;20052;-69
2022/10/08 07:11:09;;;;;;;21.25;9.93;;;;;;;13.04;100.00;101776.69;5061819;28;20020;-69
2022/10/08 07:13:35;;;;;;;22.38;11.55;;;;;;;12.75;100.00;101794.47;5062106;28;20032;-69
2022/10/08 07:16:09;;;;;;;23.02;10.20;;;;;;;12.87;100.00;101790.19;5028923;28;20029;-69
2022/10/08 07:18:36;;;;;;;18.88;10.63;;;;;;;13.08;100.00;101785.41;5061622;28;20043;-69
2022/10/08 07:21:03;;;;;;;21.67;9.48;;;;;;;12.85;100.00;101792.97;5061965;28;20068;-69
2022/10/08 07:23:28;;;;;;;19.83;9.43;;;;;;;13.15;100.00;101800.16;5062330;28;20060;-69
2022/10/08 07:25:55;;;;;;;22.48;9.80;;;;;;;13.59;100.00;101805.56;5062931;28;20072;-69
2022/10/08 07:28:21;;;;;;;20.20;9.18;;;;;;;13.07;100.00;101814.00;5058321;28;20074;-69
2022/10/08 07:30:46;;;;;;;23.33;8.48;;;;;;;13.20;100.00;101808.78;5058171;28;20562;-68
2022/10/08 07:33:12;;;;;;;18.60;9.73;;;;;;;13.58;100.00;101819.06;5063453;28;20719;-70
2022/10/08 07:35:37;;;;;;;16.80;8.77;;;;;;;13.58;100.00;101822.59;5063791;28;20051;-68
2022/10/08 07:38:03;;;;;;;16.58;8.43;;;;;;;13.80;100.00;101832.03;5058816;28;20028;-68
2022/10/08 07:40:28;;;;;;;15.15;8.10;;;;;;;13.80;100.00;101830.19;5063650;28;20044;-68
2022/10/08 07:42:54;;;;;;;16.15;7.20;;;;;;;13.70;100.00;101821.88;5064480;28;20409;-68
2022/10/08 07:45:19;;;;;;;23.05;7.53;;;;;;;13.58;100.00;101830.66;5062753;28;20496;-69
2022/10/08 07:47:45;;;;;;;15.95;6.78;;;;;;;13.53;100.00;101830.06;5058503;28;20638;-68
2022/10/08 07:50:10;;;;;;;14.38;6.93;;;;;;;13.70;100.00;101834.41;5062828;28;20115;-69
2022/10/08 07:52:36;;;;;;;14.68;6.13;;;;;;;13.59;100.00;101834.19;5061291;28;20485;-70
2022/10/08 07:55:01;;;;;;;17.50;7.32;;;;;;;13.57;100.00;101844.16;5061368;28;20040;-69
2022/10/08 07:57:27;;;;;;;20.05;5.93;;;;;;;13.57;100.00;101839.66;5061245;28;20040;-69
2022/10/08 07:59:52;;;;;;;15.63;6.25;;;;;;;13.51;100.00;101841.84;5053761;28;20036;-68
2022/10/08 08:02:17;;;;;;;13.80;5.20;;;;;;;13.48;100.00;101841.06;5039179;28;20041;-68
2022/10/08 08:04:43;;;;;;;11.32;4.13;;;;;;;13.75;100.00;101848.38;5055073;28;20101;-68
2022/10/08 08:07:08;;;;;;;11.57;4.43;;;;;;;13.57;100.00;101849.50;5060471;28;20036;-70
2022/10/08 08:09:34;;;;;;;10.77;3.70;;;;;;;13.51;100.00;101844.53;5061655;28;20044;-69
2022/10/08 08:12:00;;;;;;;13.68;4.57;;;;;;;13.48;100.00;101846.41;5059881;28;20123;-68
2022/10/08 08:14:25;;;;;;;7.90;3.63;;;;;;;13.44;100.00;101849.38;5041646;28;20056;-70
2022/10/08 08:16:51;;;;;;;14.50;3.85;;;;;;;13.55;100.00;101864.81;5057983;28;20054;-69
2022/10/08 08:19:16;;;;;;;8.38;3.85;;;;;;;13.50;100.00;101861.53;5060974;28;20056;-70
2022/10/08 08:21:42;;;;;;;10.10;3.75;;;;;;;13.76;100.00;101868.03;5060242;28;20033;-70
2022/10/08 08:24:10;;;;;;;10.23;3.67;;;;;;;13.87;100.00;101878.97;5056615;28;20044;-70
2022/10/08 08:26:37;;;;;;;15.00;4.80;;;;;;;13.87;100.00;101877.16;5059614;28;20036;-70
2022/10/08 08:29:14;;;;;;;7.68;3.85;;;;;;;13.91;100.00;101880.53;5061039;28;20043;-70
2022/10/08 08:31:42;;;;;;;12.27;3.25;;;;;;;14.16;100.00;101885.25;5055467;28;20485;-68
2022/10/08 08:34:12;;;;;;;15.35;3.83;;;;;;;14.16;100.00;101887.94;5055505;28;20068;-71
2022/10/08 08:36:43;;;;;;;10.23;3.80;;;;;;;14.25;100.00;101890.00;5053681;28;20041;-68
2022/10/08 08:39:14;;;;;;;9.85;2.58;;;;;;;14.31;100.00;101896.81;5058098;28;20037;-69
2022/10/08 08:42:11;;;;;;;13.68;2.60;;;;;;;14.31;100.00;101896.81;5043885;28;20494;-69
2022/10/08 08:44:48;;;;;;;8.30;2.03;;;;;;;14.44;100.00;101906.69;5057833;28;20855;-70
2022/10/08 08:47:26;;;;;;;9.18;2.00;;;;;;;14.43;100.00;101914.84;5058919;28;20495;-72
2022/10/08 08:50:00;;;;;;;10.30;3.72;;;;;;;14.41;100.00;101916.78;5056128;28;20052;-69
2022/10/08 08:52:28;;;;;;;7.28;2.05;;;;;;;14.49;100.00;101922.56;5039159;28;20679;-70
2022/10/08 08:54:54;;;;;;;13.18;2.40;;;;;;;14.75;98.35;101928.97;5056113;28;20485;-69
2022/10/08 08:57:31;;;;;;;10.90;2.35;;;;;;;14.73;96.08;101921.00;5060609;28;20055;-68
2022/10/08 09:00:02;;;;;;;10.68;1.85;;;;;;;14.50;94.84;101932.31;5038153;28;20579;-68
2022/10/08 09:02:34;;;;;;;9.60;2.20;;;;;;;14.85;92.66;101934.59;5043149;28;20040;-70
2022/10/08 09:05:04;;;;;;;13.98;1.85;;;;;;;14.69;92.99;101922.16;5060811;28;23351;-70
2022/10/08 09:07:43;;;;;;;8.15;1.42;;;;;;;14.71;89.48;101930.13;5061952;28;20041;-70
2022/10/08 09:10:25;;;;;;;5.47;2.53;;;;;;;14.77;91.82;101927.06;5060654;28;20131;-70
2022/10/08 09:12:52;;;;;;;6.18;1.48;;;;;;;14.63;90.91;101935.13;5062970;28;20568;-69
2022/10/08 09:15:32;;;;;;;8.98;1.90;;;;;;;14.62;92.96;101942.31;5059083;28;20040;-68
2022/10/08 09:18:00;;;;;;;8.75;1.63;;;;;;;15.11;90.08;101949.03;5051179;28;20628;-70
2022/10/08 09:20:26;;;;;;;9.25;1.75;;;;;;;15.20;89.21;101949.31;5057530;28;20043;-70
2022/10/08 09:22:52;;;;;;;8.50;1.40;;;;;;;15.48;86.85;101948.38;5042601;28;20032;-68
2022/10/08 09:25:30;;;;;;;8.43;2.03;;;;;;;15.38;85.78;101955.31;5054815;28;20074;-69
2022/10/08 09:28:03;;;;;;;11.20;1.92;;;;;;;15.19;87.56;101955.66;5055090;28;20044;-70
2022/10/08 09:30:40;;;;;;;7.50;1.13;;;;;;;15.10;87.27;101960.75;5057720;28;20135;-70
2022/10/08 09:33:12;;;;;;;11.15;1.70;;;;;;;15.61;85.69;101961.84;5058476;28;20032;-68
2022/10/08 09:35:46;;;;;;;13.35;1.35;;;;;;;15.63;82.65;101961.75;5062137;28;20147;-69
2022/10/08 09:38:26;;;;;;;5.43;1.25;;;;;;;15.83;80.55;101972.06;5057577;28;20095;-69
2022/10/08 09:41:07;;;;;;;6.90;1.27;;;;;;;15.59;79.82;101977.22;5059640;28;20047;-69
2022/10/08 09:43:34;;;;;;;4.35;2.20;;;;;;;16.00;80.73;101971.78;5058111;28;20036;-69
2022/10/08 09:46:03;;;;;;;5.82;1.13;;;;;;;16.02;78.91;101967.19;5061140;28;20558;-70
2022/10/08 09:48:30;;;;;;;9.80;1.90;;;;;;;16.42;79.86;101969.81;5058408;28;20036;-69
2022/10/08 09:51:11;;;;;;;9.55;1.45;;;;;;;16.15;79.90;101979.78;5060432;28;20041;-69
2022/10/08 09:53:41;;;;;;;10.73;1.52;;;;;;;16.10;76.14;101988.16;5041805;28;20159;-69
2022/10/08 09:56:09;;;;;;;11.25;1.00;;;;;;;15.71;76.38;101989.03;5060277;28;20562;-69
2022/10/08 09:58:47;;;;;;;5.05;1.23;;;;;;;15.95;74.04;101990.06;5060325;28;20473;-69
2022/10/08 10:01:15;;;;;;;4.80;1.10;;;;;;;16.20;73.40;101994.63;5057631;28;20040;-70
2022/10/08 10:03:51;;;;;;;10.85;1.40;;;;;;;15.82;73.46;101993.72;5060426;28;20025;-70
2022/10/08 10:06:27;;;;;;;11.30;1.13;;;;;;;15.96;74.85;101991.78;5056134;28;20060;-68
2022/10/08 10:09:03;;;;;;;12.82;1.83;;;;;;;16.25;76.15;101997.88;5056041;28;20040;-69
2022/10/08 10:11:32;;;;;;;7.57;1.45;;;;;;;16.13;78.07;102000.56;5035475;28;20942;-70
2022/10/08 10:14:03;;;;;;;8.30;1.80;;;;;;;16.04;79.34;102004.72;5056077;28;20908;-69
2022/10/08 10:16:37;;;;;;;8.70;1.85;;;;;;;15.70;78.87;102007.00;5040072;28;20040;-69
2022/10/08 10:19:08;;;;;;;10.88;1.35;;;;;;;15.34;78.02;102006.69;5059781;28;20063;-68
2022/10/08 10:21:58;;;;;;;4.70;1.10;;;;;;;15.12;78.71;102009.91;5060177;28;20796;-70
2022/10/08 10:24:34;;;;;;;8.05;1.20;;;;;;;14.91;80.45;102015.69;5037742;28;20126;-69
2022/10/08 10:27:07;;;;;;;6.75;1.10;;;;;;;14.76;82.62;102022.00;5041290;28;20373;-68
2022/10/08 10:29:56;;;;;;;8.88;1.55;;;;;;;15.08;83.35;102019.09;5058946;28;20829;-70
2022/10/08 10:32:31;;;;;;;5.40;1.10;;;;;;;15.03;78.99;102032.84;5036042;28;20032;-68
2022/10/08 10:35:05;;;;;;;4.28;1.65;;;;;;;15.24;78.51;102022.53;5055940;28;20040;-70
2022/10/08 10:38:05;;;;;;;4.72;1.02;;;;;;;15.11;77.08;102038.59;5053045;28;20669;-69
2022/10/08 10:40:56;;;;;;;6.35;1.08;;;;;;;15.37;75.66;102036.06;5050483;28;20155;-70
2022/10/08 10:43:36;;;;;;;7.25;1.70;;;;;;;15.60;76.18;102031.88;5059956;28;20044;-69
2022/10/08 10:46:17;;;;;;;5.28;1.30;;;;;;;15.65;76.20;102035.16;5048566;28;20500;-71
2022/10/08 10:48:42;;;;;;;3.13;0.98;;;;;;;15.72;74.77;102040.03;5030916;28;20037;-70
2022/10/08 10:51:42;;;;;;;8.77;1.15;;;;;;;15.79;75.08;102027.03;5054350;28;20033;-70
2022/10/08 10:54:18;;;;;;;5.10;1.23;;;;;;;16.01;74.58;102019.28;5049300;28;20919;-70
2022/10/08 10:56:56;;;;;;;6.97;2.03;;;;;;;15.98;74.00;102021.31;5058140;28;20478;-70
2022/10/08 10:59:25;;;;;;;8.98;1.15;;;;;;;15.92;74.69;102029.78;5056392;28;20102;-69
2022/10/08 11:02:05;;;;;;;8.35;1.85;;;;;;;15.62;75.73;102040.72;5050792;28;20106;-68
2022/10/08 11:04:43;;;;;;;6.57;1.25;;;;;;;15.54;77.30;102038.50;5055723;28;20040;-69
2022/10/08 11:07:22;;;;;;;6.07;1.08;;;;;;;15.17;78.40;102038.19;5052646;28;20032;-70
2022/10/08 11:10:02;;;;;;;7.35;1.42;;;;;;;15.15;81.49;102050.84;5056427;28;20071;-71
2022/10/08 11:13:05;;;;;;;6.90;1.50;;;;;;;14.91;83.18;102049.69;5049648;28;20539;-70
2022/10/08 11:15:43;;;;;;;9.95;1.85;;;;;;;15.01;84.62;102053.56;5053448;28;20791;-69
2022/10/08 11:18:38;;;;;;;6.88;1.63;;;;;;;15.05;84.90;102051.53;5035752;28;20033;-70
2022/10/08 11:21:19;;;;;;;4.93;1.15;;;;;;;14.73;82.98;102043.66;5054882;28;20048;-69
2022/10/08 11:24:02;;;;;;;3.72;0.93;;;;;;;14.65;83.78;102052.16;5053307;28;20591;-70
2022/10/08 11:26:41;;;;;;;8.75;2.05;;;;;;;14.35;83.05;102046.81;5052471;28;20409;-70
2022/10/08 11:29:27;;;;;;;6.95;1.08;;;;;;;14.38;83.83;102053.81;5056553;28;20071;-70